Time;durP1;ratioP1;P1;durP2;ratioP2;P2;SDS_P1;SDS_P2;PMS_P1;PMS_P2;Temp;Humidity;BMP_temperature;BMP_pressure;BME280_temperature;BME280_humidity;BME280_pressure;Samples;Min_cycle;Max_cycle;Signal;HPM_P1;HPM_P2
2023/09/12 00:01:35;;;;;;;4.10;3.20;;;;;;;23.40;37.46;95237.22;6307587;27;110004;-64
2023/09/12 00:04:38;;;;;;;4.18;3.22;;;;;;;23.42;37.81;95239.59;6313708;27;109152;-64
2023/09/12 00:07:41;;;;;;;4.25;3.60;;;;;;;23.40;37.55;95244.47;6308103;27;109449;-65
2023/09/12 00:10:44;;;;;;;4.30;3.20;;;;;;;23.41;37.61;95241.47;6319009;27;110074;-64
2023/09/12 00:13:47;;;;;;;4.10;3.33;;;;;;;23.52;37.93;95245.44;6320445;27;109330;-63
2023/09/12 00:16:55;;;;;;;6.73;3.47;;;;;;;23.58;37.37;95249.53;6312744;27;109071;-63
2023/09/12 00:19:58;;;;;;;4.90;3.20;;;;;;;23.60;37.44;95243.88;6328510;27;110082;-64
2023/09/12 00:23:01;;;;;;;3.88;3.47;;;;;;;23.63;37.31;95245.94;6321188;27;111635;-63
2023/09/12 00:26:04;;;;;;;4.00;3.28;;;;;;;23.67;37.50;95246.88;6315840;27;109326;-64
2023/09/12 00:29:07;;;;;;;4.47;3.20;;;;;;;23.70;37.29;95251.63;6337254;27;109987;-63
2023/09/12 00:32:12;;;;;;;4.90;3.38;;;;;;;23.67;37.33;95240.75;6315959;27;110183;-64
2023/09/12 00:35:15;;;;;;;4.57;3.30;;;;;;;23.65;37.47;95249.06;6312151;27;109071;-63
2023/09/12 00:38:19;;;;;;;3.75;3.15;;;;;;;23.68;37.62;95251.13;6318372;27;109341;-63
2023/09/12 00:41:22;;;;;;;4.60;2.97;;;;;;;23.69;37.67;95241.22;6317744;27;109297;-64
2023/09/12 00:44:25;;;;;;;4.95;3.15;;;;;;;23.70;37.51;95256.19;6330370;27;109188;-64
2023/09/12 00:47:31;;;;;;;4.40;3.20;;;;;;;23.67;37.52;95257.56;6308564;27;110044;-64
2023/09/12 00:50:36;;;;;;;3.90;3.00;;;;;;;23.65;37.57;95261.66;6319392;27;109031;-64
2023/09/12 00:53:39;;;;;;;4.60;3.30;;;;;;;23.64;37.84;95260.88;6315207;27;109395;-64
2023/09/12 00:56:43;;;;;;;4.43;3.15;;;;;;;23.63;38.06;95267.31;6322284;27;108877;-64
2023/09/12 00:59:46;;;;;;;5.20;3.33;;;;;;;23.64;37.96;95260.09;6316471;27;109314;-64
2023/09/12 01:02:53;;;;;;;7.50;3.90;;;;;;;23.47;37.74;95258.94;6315929;27;108878;-63
2023/09/12 01:05:58;;;;;;;4.30;3.20;;;;;;;23.48;38.19;95262.38;6323548;27;109166;-63
2023/09/12 01:09:01;;;;;;;3.70;3.10;;;;;;;23.43;38.37;95263.31;6317315;27;111370;-64
2023/09/12 01:12:06;;;;;;;4.53;2.95;;;;;;;23.38;37.99;95270.69;6330243;27;109009;-64
2023/09/12 01:15:13;;;;;;;4.50;3.40;;;;;;;23.34;38.10;95275.03;6320382;27;109263;-64
2023/09/12 01:18:18;;;;;;;6.00;3.50;;;;;;;23.34;38.16;95275.03;6315505;27;108792;-64
2023/09/12 01:22:04;;;;;;;5.30;3.37;;;;;;;23.32;38.34;95272.69;6311897;27;109578;-64
2023/09/12 01:25:31;;;;;;;5.10;3.60;;;;;;;23.33;38.29;95274.25;6274393;27;109202;-64
2023/09/12 01:28:42;;;;;;;3.78;3.20;;;;;;;23.33;38.56;95273.47;6323959;27;109546;-64
2023/09/12 01:31:48;;;;;;;4.00;3.50;;;;;;;23.28;38.37;95274.38;6309759;27;110086;-64
2023/09/12 01:34:51;;;;;;;4.10;3.30;;;;;;;23.32;38.19;95277.25;6323129;27;109560;-64
2023/09/12 01:37:55;;;;;;;5.22;3.60;;;;;;;23.24;38.31;95281.44;6324294;27;110084;-64
2023/09/12 01:40:59;;;;;;;4.32;3.50;;;;;;;23.27;38.21;95276.25;6319589;27;109189;-64
2023/09/12 01:44:04;;;;;;;4.10;3.08;;;;;;;23.18;38.48;95274.63;6312981;27;110050;-64
2023/09/12 01:47:08;;;;;;;3.50;3.15;;;;;;;23.19;38.90;95284.25;6319817;27;109000;-64
2023/09/12 01:50:13;;;;;;;3.30;3.00;;;;;;;23.19;38.46;95279.69;6321705;27;109486;-65
2023/09/12 01:53:18;;;;;;;3.88;3.15;;;;;;;23.19;38.00;95290.38;6317819;27;109211;-65
2023/09/12 01:56:22;;;;;;;4.15;3.40;;;;;;;23.18;37.96;95291.44;6314667;27;111386;-65
2023/09/12 01:59:26;;;;;;;5.53;3.33;;;;;;;23.11;38.32;95288.44;6316155;27;109575;-65
2023/09/12 02:02:29;;;;;;;4.47;3.10;;;;;;;23.16;38.41;95288.28;6313014;27;110083;-64
2023/09/12 02:05:33;;;;;;;3.95;2.83;;;;;;;23.20;38.35;95296.50;6325636;27;110777;-65
2023/09/12 02:08:36;;;;;;;3.70;2.90;;;;;;;23.01;38.14;95289.47;6315955;27;109627;-64
2023/09/12 02:11:39;;;;;;;3.63;3.08;;;;;;;22.93;38.11;95292.09;6315840;27;109005;-63
2023/09/12 02:14:44;;;;;;;4.93;3.20;;;;;;;22.74;38.14;95302.94;6326395;27;109176;-63
2023/09/12 02:17:50;;;;;;;3.90;3.10;;;;;;;22.74;38.47;95304.84;6314553;27;109455;-63
2023/09/12 02:20:53;;;;;;;3.15;2.85;;;;;;;22.91;38.41;95294.28;6322744;27;110051;-64
2023/09/12 02:23:56;;;;;;;3.80;3.17;;;;;;;22.96;37.85;95294.13;6321033;27;109398;-64
2023/09/12 02:26:59;;;;;;;4.28;3.03;;;;;;;23.01;38.24;95300.13;6312807;27;108914;-63
2023/09/12 02:30:05;;;;;;;3.50;3.10;;;;;;;22.88;37.62;95294.88;6306464;27;109083;-64
2023/09/12 02:33:08;;;;;;;3.25;2.95;;;;;;;22.91;38.05;95295.06;6320339;27;108980;-63
2023/09/12 02:36:11;;;;;;;4.82;3.20;;;;;;;22.92;37.69;95295.84;6312042;27;109179;-62
2023/09/12 02:39:15;;;;;;;5.10;3.40;;;;;;;22.98;38.14;95299.97;6317798;27;109139;-64
2023/09/12 02:42:18;;;;;;;4.30;3.10;;;;;;;22.88;38.03;95289.56;6313716;27;109338;-63
2023/09/12 02:45:23;;;;;;;4.80;3.10;;;;;;;22.88;38.14;95289.56;6322372;27;108979;-63
2023/09/12 02:48:26;;;;;;;3.83;3.30;;;;;;;22.93;37.79;95287.53;6321484;27;109225;-62
2023/09/12 02:51:29;;;;;;;4.57;3.27;;;;;;;22.98;37.80;95289.28;6304535;27;110042;-63
2023/09/12 02:54:32;;;;;;;4.80;3.80;;;;;;;23.01;37.64;95294.78;6314596;27;109351;-63
2023/09/12 02:57:35;;;;;;;6.43;5.10;;;;;;;22.99;37.61;95296.19;6318871;27;109315;-65
2023/09/12 03:00:41;;;;;;;5.40;4.90;;;;;;;22.99;38.06;95290.84;6314369;27;109550;-64
2023/09/12 03:03:46;;;;;;;5.63;4.80;;;;;;;22.97;38.23;95293.03;6312692;27;110280;-64
2023/09/12 03:06:49;;;;;;;5.45;4.82;;;;;;;22.94;37.96;95289.09;6319446;27;109280;-64
2023/09/12 03:09:53;;;;;;;5.68;5.00;;;;;;;22.93;37.65;95295.53;6309619;27;109143;-65
2023/09/12 03:12:56;;;;;;;8.05;7.25;;;;;;;22.94;38.39;95293.66;6316285;27;109083;-69
2023/09/12 03:16:00;;;;;;;10.88;9.98;;;;;;;23.04;38.14;95292.63;6303810;27;108988;-64
2023/09/12 03:19:03;;;;;;;12.25;11.25;;;;;;;23.17;37.80;95292.53;6329289;27;109148;-62
2023/09/12 03:22:06;;;;;;;12.60;11.50;;;;;;;23.24;37.54;95295.56;6318581;27;109586;-63
2023/09/12 03:25:10;;;;;;;17.80;16.30;;;;;;;23.26;37.56;95304.06;6330688;27;112750;-64
2023/09/12 03:28:13;;;;;;;17.60;16.20;;;;;;;23.29;37.70;95302.69;6315351;27;109012;-63
2023/09/12 03:31:17;;;;;;;18.20;16.60;;;;;;;23.28;37.97;95301.88;6310766;27;109487;-63
2023/09/12 03:34:20;;;;;;;20.00;18.40;;;;;;;23.26;37.45;95296.03;6331306;27;110021;-65
2023/09/12 03:37:27;;;;;;;19.30;17.85;;;;;;;23.30;37.39;95301.59;6308675;27;109910;-65
2023/09/12 03:40:30;;;;;;;15.88;14.38;;;;;;;23.19;38.17;95297.59;6318951;27;109063;-65
2023/09/12 03:43:35;;;;;;;12.75;11.50;;;;;;;23.16;38.19;95300.84;6318526;27;109223;-65
2023/09/12 03:46:39;;;;;;;7.65;6.95;;;;;;;23.05;37.87;95294.22;6320067;27;108773;-65
2023/09/12 03:49:42;;;;;;;7.10;6.40;;;;;;;22.99;38.36;95309.53;6306088;27;108990;-66
2023/09/12 03:52:45;;;;;;;9.63;6.50;;;;;;;23.01;38.75;95305.47;6322562;27;109969;-64
2023/09/12 03:55:48;;;;;;;7.38;5.05;;;;;;;22.81;38.68;95315.84;6320844;27;109629;-63
2023/09/12 03:58:51;;;;;;;7.10;4.50;;;;;;;22.45;38.76;95308.66;6322126;27;110199;-65
2023/09/12 04:01:56;;;;;;;5.28;4.13;;;;;;;22.02;39.94;95310.94;6324194;27;110099;-64
2023/09/12 04:05:00;;;;;;;6.32;4.65;;;;;;;22.09;39.19;95317.44;6339070;27;109097;-63
2023/09/12 04:08:03;;;;;;;5.13;3.97;;;;;;;22.13;39.42;95314.94;6321397;27;110025;-63
2023/09/12 04:11:06;;;;;;;4.25;3.65;;;;;;;22.29;39.42;95312.75;6329462;27;109125;-65
2023/09/12 04:14:09;;;;;;;9.15;5.70;;;;;;;22.46;39.49;95310.22;6328587;27;109226;-65
2023/09/12 04:17:14;;;;;;;9.77;6.60;;;;;;;22.65;39.75;95313.53;6325977;27;110200;-66
2023/09/12 04:20:17;;;;;;;6.90;5.07;;;;;;;22.72;38.88;95323.03;6319279;27;109226;-66
2023/09/12 04:23:20;;;;;;;6.82;4.55;;;;;;;22.69;38.43;95313.75;6319892;27;109803;-65
2023/09/12 04:26:24;;;;;;;7.57;5.13;;;;;;;22.35;39.03;95319.56;6339604;27;109183;-65
2023/09/12 04:29:27;;;;;;;5.88;4.18;;;;;;;22.13;39.67;95312.28;6334347;27;109085;-63
2023/09/12 04:32:32;;;;;;;4.50;3.40;;;;;;;21.84;39.53;95317.13;6314619;27;109318;-65
2023/09/12 04:35:36;;;;;;;4.20;3.28;;;;;;;21.78;39.33;95317.22;6329286;27;109130;-62
2023/09/12 04:38:39;;;;;;;;;;;;;;;21.81;39.44;95318.50;6341643;27;109184;-64
2023/09/12 04:41:41;;;;;;;;;;;;;;;22.10;38.96;95324.34;6341670;27;109192;-61
2023/09/12 04:44:44;;;;;;;;;;;;;;;22.36;38.39;95316.59;6335054;27;109292;-62
2023/09/12 04:47:48;;;;;;;;;;;;;;;22.58;38.41;95323.84;6338843;27;109164;-62
2023/09/12 04:50:51;;;;;;;;;;;;;;;22.60;37.93;95320.88;6341418;27;109203;-62
2023/09/12 04:53:54;;;;;;;;;;;;;;;22.39;38.03;95325.88;6341310;27;109174;-62
2023/09/12 04:56:57;;;;;;;;;;;;;;;21.74;39.64;95323.44;6330588;27;110117;-62
2023/09/12 05:00:00;;;;;;;;;;;;;;;21.65;39.95;95323.31;6341184;27;108988;-62
2023/09/12 05:03:05;;;;;;;;;;;;;;;21.97;39.29;95329.66;6341839;27;109538;-61
2023/09/12 05:06:08;;;;;;;;;;;;;;;22.08;39.24;95328.38;6340926;27;109397;-63
2023/09/12 05:09:11;;;;;;;;;;;;;;;22.22;38.90;95331.81;6330337;27;109050;-63
2023/09/12 05:12:14;;;;;;;;;;;;;;;22.42;38.37;95330.59;6340826;27;109181;-63
2023/09/12 05:15:17;;;;;;;;;;;;;;;22.51;38.62;95323.44;6340954;27;109282;-61
2023/09/12 05:18:21;;;;;;;;;;;;;;;22.65;38.17;95329.53;6336485;27;109078;-63
2023/09/12 05:21:24;;;;;;;;;;;;;;;22.77;38.39;95336.25;6334745;27;109050;-63
2023/09/12 05:24:27;;;;;;;;;;;;;;;22.85;38.34;95330.97;6340646;27;109004;-62
2023/09/12 05:27:30;;;;;;;;;;;;;;;22.89;38.36;95339.16;6340665;27;109029;-62
2023/09/12 05:30:33;;;;;;;;;;;;;;;22.94;38.44;95337.16;6325966;27;109271;-63
2023/09/12 05:33:37;;;;;;;;;;;;;;;22.96;38.08;95339.50;6321219;27;109055;-64
2023/09/12 05:36:40;;;;;;;;;;;;;;;22.96;38.84;95340.31;6340890;27;110142;-63
2023/09/12 05:39:43;;;;;;;;;;;;;;;22.89;38.63;95344.50;6340776;27;109259;-67
2023/09/12 05:42:46;;;;;;;;;;;;;;;22.69;38.89;95341.22;6329882;27;109340;-67
2023/09/12 05:45:49;;;;;;;;;;;;;;;22.56;39.52;95341.22;6340033;27;108987;-66
2023/09/12 05:48:54;;;;;;;;;;;;;;;22.57;39.01;95346.28;6340644;27;109991;-69
2023/09/12 05:51:56;;;;;;;;;;;;;;;22.73;38.87;95343.28;6341121;27;108826;-66
2023/09/12 05:54:59;;;;;;;;;;;;;;;22.53;39.35;95339.94;6330097;27;111026;-65
2023/09/12 05:58:05;;;;;;;;;;;;;;;22.63;38.63;95342.41;6340292;27;109079;-66
2023/09/12 06:01:08;;;;;;;;;;;;;;;22.80;38.58;95339.09;6322171;27;109848;-66
2023/09/12 06:04:12;;;;;;;;;;;;;;;22.88;38.38;95348.25;6318929;27;109412;-66
2023/09/12 06:07:16;;;;;;;;;;;;;;;22.93;38.18;95346.25;6335485;27;108966;-67
2023/09/12 06:10:19;;;;;;;;;;;;;;;23.12;38.17;95338.06;6339438;27;109051;-67
2023/09/12 06:13:22;;;;;;;;;;;;;;;23.21;37.59;95341.56;6339903;27;109011;-67
2023/09/12 06:16:25;;;;;;;;;;;;;;;23.35;37.58;95346.06;6330736;27;109129;-67
2023/09/12 06:19:30;;;;;;;;;;;;;;;23.45;37.63;95345.81;6340103;27;109010;-65
2023/09/12 06:22:33;;;;;;;;;;;;;;;23.60;38.18;95350.75;6339728;27;109012;-68
2023/09/12 06:25:36;;;;;;;;;;;;;;;23.69;37.85;95351.59;6340028;27;110166;-67
2023/09/12 06:28:39;;;;;;;;;;;;;;;23.72;38.06;95350.19;6329362;27;110178;-66
2023/09/12 06:31:42;;;;;;;;;;;;;;;23.71;37.63;95348.59;6340213;27;111209;-67
2023/09/12 06:34:47;;;;;;;;;;;;;;;23.72;37.62;95353.66;6339383;27;109150;-66
2023/09/12 06:37:50;;;;;;;;;;;;;;;23.74;37.16;95356.78;6337064;27;109015;-65
2023/09/12 06:40:53;;;;;;;;;;;;;;;23.67;36.78;95358.31;6334873;27;109524;-67
2023/09/12 06:43:57;;;;;;;;;;;;;;;23.66;36.77;95351.41;6339468;27;109103;-66
2023/09/12 06:47:00;;;;;;;;;;;;;;;23.65;36.73;95363.97;6339792;27;109160;-70
2023/09/12 06:50:05;;;;;;;;;;;;;;;23.76;36.48;95357.28;6330779;27;110042;-62
2023/09/12 06:53:13;;;;;;;;;;;;;;;23.81;36.43;95359.78;6339306;27;109084;-62
2023/09/12 06:56:16;;;;;;;;;;;;;;;23.92;36.82;95367.53;6340161;27;108815;-62
2023/09/12 06:59:19;;;;;;;;;;;;;;;23.96;36.45;95365.81;6336995;27;109819;-61
2023/09/12 07:02:22;;;;;;;;;;;;;;;24.02;36.73;95359.25;6303743;27;109036;-61
2023/09/12 07:05:26;;;;;;;;;;;;;;;23.88;36.25;95370.84;6331127;27;111383;-61
2023/09/12 07:08:29;;;;;;;;;;;;;;;23.77;36.36;95364.19;6338824;27;109067;-62
2023/09/12 07:11:32;;;;;;;;;;;;;;;23.88;36.17;95370.84;6338498;27;109182;-61
2023/09/12 07:14:37;;;;;;;;;;;;;;;24.00;36.61;95366.81;6327426;27;109512;-62
2023/09/12 07:17:40;;;;;;;;;;;;;;;24.16;37.07;95370.63;6338964;27;110009;-62
2023/09/12 07:20:45;;;;;;;;;;;;;;;24.25;36.74;95366.09;6338131;27;109088;-62
2023/09/12 07:23:49;;;;;;;;;;;;;;;24.32;36.84;95370.97;6332718;27;109437;-63
2023/09/12 07:26:51;;;;;;;;;;;;;;;24.29;36.65;95363.59;6333774;27;109987;-61
2023/09/12 07:29:54;;;;;;;;;;;;;;;24.16;36.93;95366.06;6331779;27;109429;-63
2023/09/12 07:32:57;;;;;;;;;;;;;;;24.10;36.87;95372.66;6312592;27;109004;-62
2023/09/12 07:36:02;;;;;;;;;;;;;;;24.23;36.64;95367.53;6322153;27;109843;-63
2023/09/12 07:39:06;;;;;;;;;;;;;;;24.29;36.43;95367.06;6338262;27;108950;-61
2023/09/12 07:42:09;;;;;;;;;;;;;;;24.19;36.01;95364.66;6338156;27;109646;-62
2023/09/12 07:45:13;;;;;;;;;;;;;;;24.03;35.95;95366.22;6337880;27;109771;-63
2023/09/12 07:48:16;;;;;;;;;;;;;;;24.06;35.49;95360.25;6328350;27;109011;-62
2023/09/12 07:51:22;;;;;;;;;;;;;;;24.18;35.60;95355.06;6338397;27;109620;-62
2023/09/12 07:54:25;;;;;;;;;;;;;;;24.25;35.60;95357.28;6338330;27;108935;-62
2023/09/12 07:57:29;;;;;;;;;;;;;;;24.36;35.63;95351.34;6333677;27;109006;-63
2023/09/12 08:00:32;;;;;;;;;;;;;;;24.45;35.24;95357.47;6321050;27;111124;-62
2023/09/12 08:03:36;;;;;;;;;;;;;;;24.46;35.71;95350.25;6312298;27;109058;-62
2023/09/12 08:06:40;;;;;;;;;;;;;;;24.39;35.72;95350.72;6337056;27;110104;-62
2023/09/12 08:09:59;;;;;;;;;;;;;;;24.43;35.44;95358.91;6327457;27;109054;-62
2023/09/12 08:13:02;;;;;;;;;;;;;;;24.35;34.97;95356.97;6338291;27;109420;-61
2023/09/12 08:16:05;;;;;;;;;;;;;;;24.40;35.08;95354.19;6337265;27;109323;-62
2023/09/12 08:19:08;;;;;;;;;;;;;;;24.43;34.88;95354.34;6337643;27;108924;-62
2023/09/12 08:22:17;;;;;;;;;;;;;;;24.23;34.83;95354.16;6328319;27;111683;-62
2023/09/12 08:25:20;;;;;;;;;;;;;;;24.22;35.33;95352.56;6338195;27;109110;-62
2023/09/12 08:28:23;;;;;;;;;;;;;;;24.27;34.83;95360.44;6337546;27;109158;-63
2023/09/12 08:31:27;;;;;;;;;;;;;;;24.25;34.55;95351.94;6319331;27;109172;-64
2023/09/12 08:34:30;;;;;;;;;;;;;;;24.26;34.42;95342.81;6308953;27;108846;-61
2023/09/12 08:37:34;;;;;;;;;;;;;;;24.56;33.99;95346.47;6316584;27;109082;-69
2023/09/12 08:40:37;;;;;;;;;;;;;;;24.45;34.10;95351.34;6329609;27;109102;-61
2023/09/12 08:43:40;;;;;;;;;;;;;;;24.20;34.53;95342.19;6332056;27;109270;-62
2023/09/12 08:46:45;;;;;;;;;;;;;;;24.40;33.93;95338.91;6340954;27;109184;-61
2023/09/12 08:49:48;;;;;;;;;;;;;;;24.89;33.21;95330.78;6341265;27;109101;-60
2023/09/12 08:52:52;;;;;;;;;;;;;;;25.14;33.17;95332.63;6341387;27;109074;-61
2023/09/12 08:56:10;;;;;;;;;;;;;;;25.31;33.10;95326.44;6330635;27;108985;-61
2023/09/12 08:59:13;;;;;;;;;;;;;;;25.45;32.76;95324.38;6342116;27;110768;-61
2023/09/12 09:02:16;;;;;;;;;;;;;;;25.48;32.92;95330.97;6316850;27;108855;-60
2023/09/12 09:05:21;;;;;;;;;;;;;;;25.50;33.03;95326.09;6324979;27;109763;-60
2023/09/12 09:08:27;;;;;;;;;;;;;;;25.55;33.00;95333.97;6329980;27;109247;-60
2023/09/12 09:11:30;;;;;;;;;;;;;;;25.56;32.95;95336.34;6340118;27;109908;-64
2023/09/12 09:14:33;;;;;;;;;;;;;;;25.64;32.90;95334.72;6341010;27;108920;-63
2023/09/12 09:17:36;;;;;;;;;;;;;;;25.66;32.78;95327.91;6332958;27;109055;-66
2023/09/12 09:20:51;;;;;;;;;;;;;;;25.67;32.74;95326.03;6339966;27;109018;-65
2023/09/12 09:23:56;;;;;;;;;;;;;;;25.66;33.21;95317.19;6341592;27;110151;-65
2023/09/12 09:27:00;;;;;;;;;;;;;;;25.73;33.21;95321.28;6340391;27;109115;-64
2023/09/12 09:30:04;;;;;;;;;;;;;;;25.79;32.93;95320.78;6330879;27;112101;-64
2023/09/12 09:33:07;;;;;;;;;;;;;;;25.79;33.03;95317.31;6340782;27;110716;-64
2023/09/12 09:36:10;;;;;;;;;;;;;;;25.81;32.73;95315.09;6339945;27;108961;-64
2023/09/12 09:39:15;;;;;;;;;;;;;;;25.76;33.09;95308.03;6340296;27;109198;-67
2023/09/12 09:42:18;;;;;;;;;;;;;;;25.77;33.33;95306.13;6328746;27;109078;-63
2023/09/12 09:45:21;;;;;;;;;;;;;;;25.75;33.31;95303.00;6339891;27;109021;-65
2023/09/12 09:48:26;;;;;;;;;;;;;;;25.76;33.16;95304.56;6340175;27;109079;-65
2023/09/12 09:51:30;;;;;;;;;;;;;;;25.80;33.23;95298.22;6335134;27;109983;-65
2023/09/12 09:54:35;;;;;;;;;;;;;;;25.85;33.22;95294.56;6335271;27;108976;-65
2023/09/12 09:57:39;;;;;;;;;;;;;;;25.90;32.95;95291.72;6340371;27;109392;-64
2023/09/12 10:00:42;;;;;;;;;;;;;;;25.95;33.23;95286.94;6339581;27;108880;-64
2023/09/12 10:03:47;;;;;;;;;;;;;;;25.94;33.22;95288.06;6328680;27;108974;-64
2023/09/12 10:06:50;;;;;;;;;;;;;;;25.89;33.20;95279.41;6339909;27;108969;-64
2023/09/12 10:09:55;;;;;;;;;;;;;;;25.95;33.16;95288.84;6339332;27;109659;-65
2023/09/12 10:12:59;;;;;;;;;;;;;;;25.95;32.99;95283.47;6339893;27;109290;-65
2023/09/12 10:16:04;;;;;;;;;;;;;;;25.93;33.01;95274.97;6328676;27;109229;-64
2023/09/12 10:19:11;;;;;;;;;;;;;;;25.87;33.09;95270.88;6339919;27;109147;-63
2023/09/12 10:22:18;;;;;;;;;;;;;;;25.81;33.79;95272.19;6339557;27;108897;-62
2023/09/12 10:25:22;;;;;;;;;;;;;;;25.80;33.48;95259.91;6335219;27;108939;-61
2023/09/12 10:28:25;;;;;;;;;;;;;;;25.81;33.84;95261.47;6333549;27;110032;-61
2023/09/12 10:31:29;;;;;;;;;;;;;;;25.84;33.74;95260.81;6338775;27;109022;-62
2023/09/12 10:34:33;;;;;;;;;;;;;;;25.85;33.54;95260.50;6339517;27;110123;-61
2023/09/12 10:37:38;;;;;;;;;;;;;;;25.79;33.71;95255.66;6327701;27;109101;-62
2023/09/12 10:40:43;;;;;;;;;;;;;;;25.79;33.94;95252.97;6339417;27;109066;-60
2023/09/12 10:43:49;;;;;;;;;;;;;;;25.76;33.93;95250.94;6339657;27;110042;-61
2023/09/12 10:46:54;;;;;;;;;;;;;;;25.73;33.99;95248.91;6338837;27;109999;-60
2023/09/12 10:49:57;;;;;;;;;;;;;;;25.60;34.09;95229.25;6327684;27;109694;-60
2023/09/12 10:53:09;;;;;;;;;;;;;;;25.65;34.29;95237.91;6339186;27;110267;-60
2023/09/12 10:56:17;;;;;;;;;;;;;;;25.70;34.19;95239.59;6338721;27;109089;-61
2023/09/12 10:59:25;;;;;;;;;;;;;;;25.68;34.21;95237.25;6334789;27;109261;-60
2023/09/12 11:02:30;;;;;;;;;;;;;;;25.66;34.06;95226.06;6332987;27;108993;-60
2023/09/12 11:05:36;;;;;;;;;;;;;;;25.64;34.48;95219.47;6338978;27;108755;-60
2023/09/12 11:08:39;;;;;;;;;;;;;;;25.59;34.64;95217.75;6338815;27;109134;-60
2023/09/12 11:11:47;;;;;;;;;;;;;;;25.55;34.52;95219.53;6327832;27;109938;-60
2023/09/12 11:15:05;;;;;;;;;;;;;;;25.56;34.59;95214.94;6338736;27;108861;-61
2023/09/12 11:18:09;;;;;;;;;;;;;;;25.53;34.60;95207.53;6339873;27;109074;-62
2023/09/12 11:21:13;;;;;;;;;;;;;;;25.49;34.92;95207.41;6338853;27;109004;-60
2023/09/12 11:24:17;;;;;;;;;;;;;;;25.49;34.86;95196.69;6328753;27;110046;-60
2023/09/12 11:27:21;;;;;;;;;;;;;;;25.45;35.00;95195.75;6338829;27;109256;-60
2023/09/12 11:30:26;;;;;;;;;;;;;;;25.42;35.22;95200.97;6338232;27;109140;-60
2023/09/12 11:33:29;;;;;;;;;;;;;;;25.39;34.92;95194.38;6334803;27;109707;-64
2023/09/12 11:36:38;;;;;;;;;;;;;;;25.35;35.09;95190.75;6331730;27;109180;-64
2023/09/12 11:39:41;;;;;;;;;;;;;;;25.36;35.22;95189.66;6338533;27;109145;-64
2023/09/12 11:42:46;;;;;;;;;;;;;;;25.35;35.29;95190.75;6338474;27;110599;-64
2023/09/12 11:45:51;;;;;;;;;;;;;;;25.35;34.83;95186.19;6328119;27;111689;-64
2023/09/12 11:48:54;;;;;;;;;;;;;;;25.34;34.92;95178.44;6338398;27;109206;-64
2023/09/12 11:51:57;;;;;;;;;;;;;;;25.30;34.99;95167.59;6338391;27;109085;-64
2023/09/12 11:55:00;;;;;;;;;;;;;;;25.36;34.91;95181.59;6338114;27;109491;-64
2023/09/12 11:58:05;;;;;;;;;;;;;;;25.31;34.94;95173.72;6327559;27;109511;-64
2023/09/12 12:01:13;;;;;;;;;;;;;;;25.29;35.13;95170.59;6333100;27;109003;-64
2023/09/12 12:04:16;;;;;;;;;;;;;;;25.27;34.99;95175.50;6338356;27;109176;-64
2023/09/12 12:07:19;;;;;;;;;;;;;;;25.25;35.24;95167.78;6341828;27;109051;-64
2023/09/12 12:10:24;;;;;;;;;;;;;;;25.27;35.08;95175.50;6331682;27;109013;-64
2023/09/12 12:13:29;;;;;;;;;;;;;;;25.29;34.65;95166.03;6342109;27;109154;-64
2023/09/12 12:16:32;;;;;;;;;;;;;;;25.29;34.49;95159.88;6341933;27;109054;-64
2023/09/12 12:19:36;;;;;;;;;;;;;;;25.30;34.32;95158.78;6332917;27;109245;-65
2023/09/12 12:22:39;;;;;;;;;;;;;;;25.28;34.52;95169.03;6341188;27;109349;-64
2023/09/12 12:25:42;;;;;;;;;;;;;;;25.27;34.67;95162.09;6341875;27;108971;-64
2023/09/12 12:28:47;;;;;;;;;;;;;;;25.29;34.65;95160.66;6342204;27;109056;-63
2023/09/12 12:31:50;;;;;;;;;;;;;;;25.28;34.24;95159.09;6331075;27;109034;-64
2023/09/12 12:34:54;;;;;;;;;;;;;;;25.27;34.56;95152.16;6341594;27;109038;-64
2023/09/12 12:38:16;;;;;;;;;;;;;;;25.23;34.70;95151.25;6341616;27;108739;-64
2023/09/12 12:41:23;;;;;;;;;;;;;;;25.24;34.74;95152.81;6342061;27;109958;-59
2023/09/12 12:44:40;;;;;;;;;;;;;;;25.23;34.72;95148.56;6331521;27;108992;-60
2023/09/12 12:47:44;;;;;;;;;;;;;;;25.20;34.93;95148.41;6341097;27;109062;-61
2023/09/12 12:50:47;;;;;;;;;;;;;;;25.19;35.03;95149.53;6341425;27;109169;-59
2023/09/12 12:53:51;;;;;;;;;;;;;;;25.19;34.57;95144.94;6331270;27;109192;-61
2023/09/12 12:56:56;;;;;;;;;;;;;;;25.21;34.89;95141.97;6340813;27;108997;-59
2023/09/12 13:00:02;;;;;;;;;;;;;;;25.23;34.57;95140.53;6341728;27;108983;-59
2023/09/12 13:03:05;;;;;;;;;;;;;;;25.24;34.32;95136.75;6335442;27;109017;-61
2023/09/12 13:06:13;;;;;;;;;;;;;;;25.23;33.97;95137.06;6330742;27;110177;-61
2023/09/12 13:09:16;;;;;;;;;;;;;;;25.22;34.18;95138.19;6340927;27;109009;-61
2023/09/12 13:12:19;;;;;;;;;;;;;;;25.22;34.57;95132.84;6340809;27;108906;-61
2023/09/12 13:15:24;;;;;;;;;;;;;;;25.22;34.04;95130.16;6341417;27;109550;-61
2023/09/12 13:18:27;;;;;;;;;;;;;;;25.19;34.38;95128.09;6330899;27;110144;-61
2023/09/12 13:21:32;;;;;;;;;;;;;;;25.17;34.66;95133.78;6340795;27;109180;-61
2023/09/12 13:24:35;;;;;;;;;;;;;;;25.19;34.64;95133.44;6341040;27;108956;-60
2023/09/12 13:27:38;;;;;;;;;;;;;;;25.21;34.21;95131.25;6335474;27;109453;-66
2023/09/12 13:30:42;;;;;;;;;;;;;;;25.20;34.69;95119.72;6336541;27;108905;-61
2023/09/12 13:33:45;;;;;;;;;;;;;;;25.19;34.67;95122.75;6340248;27;109195;-61
2023/09/12 13:36:48;;;;;;;;;;;;;;;25.19;34.61;95126.19;6340024;27;108954;-61
2023/09/12 13:40:12;;;;;;;;;;;;;;;25.12;34.98;95117.91;6330435;27;112145;-63
2023/09/12 13:43:15;;;;;;;;;;;;;;;25.12;35.14;95119.78;6341321;27;108896;-64
2023/09/12 13:46:20;;;;;;;;;;;;;;;25.13;35.02;95121.38;6340069;27;108974;-61
2023/09/12 13:49:22;;;;;;;;;;;;;;;25.12;35.00;95117.91;6340158;27;108998;-61
2023/09/12 13:52:27;;;;;;;;;;;;;;;25.14;34.92;95114.91;6329705;27;109205;-61
2023/09/12 13:55:30;;;;;;;;;;;;;;;25.11;34.97;95121.69;6340304;27;109170;-60
2023/09/12 13:58:53;;;;;;;;;;;;;;;25.13;34.97;95113.34;6340105;27;108914;-60
2023/09/12 14:01:57;;;;;;;;;;;;;;;25.16;34.84;95118.03;6329673;27;109039;-61
2023/09/12 14:05:00;;;;;;;;;;;;;;;25.12;34.64;95114.44;6339953;27;110200;-61
2023/09/12 14:08:16;;;;;;;;;;;;;;;25.16;34.82;95120.72;6339545;27;109182;-61
2023/09/12 14:11:19;;;;;;;;;;;;;;;25.15;34.76;95117.25;6338813;27;109056;-61
2023/09/12 14:14:35;;;;;;;;;;;;;;;25.15;34.81;95119.16;6329523;27;110017;-60
2023/09/12 14:17:40;;;;;;;;;;;;;;;25.13;34.80;95114.13;6339502;27;108988;-61
2023/09/12 14:20:58;;;;;;;;;;;;;;;25.13;34.54;95110.66;6339683;27;109137;-61
2023/09/12 14:24:01;;;;;;;;;;;;;;;25.13;34.68;95113.34;6334997;27;110251;-63
2023/09/12 14:27:04;;;;;;;;;;;;;;;25.14;34.72;95114.91;6334766;27;108876;-61
2023/09/12 14:30:15;;;;;;;;;;;;;;;25.13;34.59;95114.13;6337044;27;109010;-63
2023/09/12 14:33:20;;;;;;;;;;;;;;;25.16;34.31;95121.50;6338080;27;109052;-63
2023/09/12 14:36:23;;;;;;;;;;;;;;;25.14;34.10;95115.69;6328248;27;109360;-62
2023/09/12 14:39:26;;;;;;;;;;;;;;;25.14;34.30;95101.50;6338329;27;110089;-59
2023/09/12 14:42:29;;;;;;;;;;;;;;;25.14;34.42;95107.66;6337640;27;110201;-60
2023/09/12 14:45:34;;;;;;;;;;;;;;;25.14;34.07;95104.19;6337609;27;109181;-61
2023/09/12 14:48:38;;;;;;;;;;;;;;;25.09;33.32;95107.84;6326519;27;108995;-63
2023/09/12 14:51:45;;;;;;;;;;;;;;;25.07;32.93;95104.72;6337310;27;109053;-63
2023/09/12 14:54:48;;;;;;;;;;;;;;;25.06;32.81;95097.78;6337776;27;109227;-63
2023/09/12 14:57:54;;;;;;;;;;;;;;;25.07;33.39;95100.13;6336856;27;109426;-63
2023/09/12 15:00:58;;;;;;;;;;;;;;;25.06;33.28;95101.25;6329805;27;109102;-67
2023/09/12 15:04:03;;;;;;;;;;;;;;;25.07;32.61;95100.13;6338210;27;108795;-66
2023/09/12 15:07:06;;;;;;;;;;;;;;;25.09;32.14;95102.50;6337537;27;109742;-67
2023/09/12 15:10:11;;;;;;;;;;;;;;;25.14;31.30;95109.53;6327359;27;109213;-67
2023/09/12 15:13:14;;;;;;;;;;;;;;;25.12;31.46;95106.41;6336941;27;112194;-67
2023/09/12 15:16:17;;;;;;;;;;;;;;;25.13;31.34;95103.41;6337725;27;109114;-68
2023/09/12 15:19:21;;;;;;;;;;;;;;;25.15;31.86;95111.09;6337767;27;109609;-68